Time;durP1;ratioP1;P1;durP2;ratioP2;P2;SDS_P1;SDS_P2;PMS_P1;PMS_P2;Temp;Humidity;BMP_temperature;BMP_pressure;BME280_temperature;BME280_humidity;BME280_pressure;Samples;Min_cycle;Max_cycle;Signal;HPM_P1;HPM_P2
2021/08/29 00:02:10;;;;;;;6.55;5.83;;;;;;;16.49;87.88;100093.75;2834228;84;20984;-60
2021/08/29 00:06:12;;;;;;;7.05;5.78;;;;;;;16.50;87.85;100089.56;2834442;84;20976;-60
2021/08/29 00:10:14;;;;;;;11.55;7.12;;;;;;;16.55;87.62;100089.06;2833837;84;21310;-60
2021/08/29 00:14:16;;;;;;;10.60;6.22;;;;;;;16.59;87.54;100089.55;2833900;83;21063;-62
2021/08/29 00:18:18;;;;;;;9.53;7.50;;;;;;;16.63;87.39;100077.48;2834129;84;20999;-61
2021/08/29 00:22:19;;;;;;;8.65;6.22;;;;;;;16.64;87.16;100078.63;2834302;84;21050;-60
2021/08/29 00:26:51;;;;;;;8.10;6.97;;;;;;;16.62;86.67;100076.62;2834093;84;20983;-61
2021/08/29 00:30:53;;;;;;;10.18;6.95;;;;;;;16.58;86.81;100077.98;2833741;84;21035;-60
2021/08/29 00:35:00;;;;;;;6.20;5.55;;;;;;;16.52;87.02;100082.18;2851944;83;21026;-61
2021/08/29 00:39:19;;;;;;;7.45;5.97;;;;;;;16.46;86.93;100069.94;2869398;82;20985;-62
2021/08/29 00:43:24;;;;;;;10.50;6.22;;;;;;;16.39;87.70;100071.96;2891924;82;21040;-61
2021/08/29 00:47:25;;;;;;;6.93;5.90;;;;;;;16.34;87.65;100064.93;2892164;82;21016;-61
2021/08/29 00:51:49;;;;;;;8.48;5.45;;;;;;;16.35;88.16;100071.13;2891904;82;20957;-61
2021/08/29 00:55:55;;;;;;;10.18;6.30;;;;;;;16.34;88.37;100064.08;2892071;82;21048;-60
2021/08/29 01:00:16;;;;;;;7.12;5.95;;;;;;;16.35;88.31;100057.21;2891906;82;20977;-61
2021/08/29 01:08:56;;;;;;;8.45;6.40;;;;;;;16.28;88.49;100057.05;2887672;82;21059;-60
2021/08/29 01:12:59;;;;;;;7.22;6.00;;;;;;;16.23;88.80;100062.09;2891932;82;21052;-60
2021/08/29 01:17:04;;;;;;;8.23;5.83;;;;;;;16.20;88.99;100062.39;2891738;82;20980;-60
2021/08/29 01:21:30;;;;;;;7.22;6.35;;;;;;;16.20;89.17;100057.03;2891431;82;21378;-63
2021/08/29 01:25:36;;;;;;;7.67;6.47;;;;;;;16.19;89.25;100066.09;2891916;82;21000;-62
2021/08/29 01:29:44;;;;;;;;;;;;;;;16.20;89.42;100066.94;2851031;82;21029;-61
2021/08/29 01:33:48;;;;;;;8.38;6.58;;;;;;;16.21;89.62;100069.47;2844497;83;20113;-62
2021/08/29 01:38:09;;;;;;;9.70;5.67;;;;;;;16.21;89.69;100069.95;2844619;83;21003;-61
2021/08/29 01:42:12;;;;;;;8.15;7.35;;;;;;;16.21;89.56;100074.84;2850974;83;21007;-60
2021/08/29 01:46:26;;;;;;;6.70;5.97;;;;;;;16.16;89.73;100069.11;2851436;83;21011;-62
2021/08/29 01:50:28;;;;;;;7.60;5.75;;;;;;;16.19;89.92;100082.19;2851232;83;20967;-60
2021/08/29 01:54:38;;;;;;;9.70;6.22;;;;;;;16.20;90.11;100076.33;2829022;83;20995;-61
2021/08/29 01:58:39;;;;;;;13.30;6.28;;;;;;;16.22;89.94;100079.69;2851139;83;21031;-62
2021/08/29 02:02:55;;;;;;;7.42;6.35;;;;;;;16.21;90.01;100074.84;2851608;82;21018;-61
2021/08/29 02:07:31;;;;;;;7.28;6.53;;;;;;;15.96;89.97;100072.64;2857460;83;21011;-61
2021/08/29 02:11:38;;;;;;;8.80;6.47;;;;;;;15.68;91.47;100065.70;2857426;82;21006;-61
2021/08/29 02:16:08;;;;;;;8.38;6.12;;;;;;;15.60;92.83;100062.98;2856982;83;20998;-61
2021/08/29 02:20:17;;;;;;;9.85;7.03;;;;;;;15.68;93.29;100067.04;2857115;83;20975;-61
2021/08/29 02:24:25;;;;;;;7.58;6.85;;;;;;;15.78;93.07;100066.89;2856849;83;20955;-61
2021/08/29 02:28:30;;;;;;;8.60;6.30;;;;;;;15.84;92.91;100059.51;2857437;82;21220;-61
2021/08/29 02:32:34;;;;;;;10.10;7.70;;;;;;;15.92;92.71;100058.72;2835120;83;20960;-60
2021/08/29 02:36:36;;;;;;;12.25;8.50;;;;;;;15.91;92.67;100060.21;2857414;82;20991;-61
2021/08/29 02:40:42;;;;;;;8.98;6.55;;;;;;;15.88;92.99;100062.71;2857236;82;21053;-60
2021/08/29 02:44:45;;;;;;;8.33;7.22;;;;;;;15.89;93.18;100059.05;2857229;83;21047;-61
2021/08/29 02:49:09;;;;;;;10.15;7.72;;;;;;;15.88;93.29;100060.52;2857059;83;21288;-61
2021/08/29 02:53:14;;;;;;;9.73;8.55;;;;;;;15.88;93.48;100059.17;2857802;83;20971;-61
2021/08/29 02:57:34;;;;;;;10.32;8.35;;;;;;;15.89;93.53;100056.86;2857634;83;21306;-61
2021/08/29 03:01:36;;;;;;;8.65;7.80;;;;;;;15.88;93.83;100057.34;2856190;83;21010;-62
2021/08/29 03:06:00;;;;;;;12.47;8.53;;;;;;;15.88;93.71;100055.16;2857239;83;21014;-60
2021/08/29 03:10:05;;;;;;;10.75;8.50;;;;;;;15.82;93.59;100054.82;2857638;83;20932;-62
2021/08/29 03:14:13;;;;;;;10.15;8.55;;;;;;;15.82;94.01;100053.97;2857566;83;21044;-60
2021/08/29 03:18:16;;;;;;;9.18;8.03;;;;;;;15.77;93.77;100046.44;2857288;83;20998;-61
2021/08/29 03:22:19;;;;;;;9.20;8.03;;;;;;;15.68;94.06;100044.73;2857487;83;21030;-60
2021/08/29 03:26:21;;;;;;;9.85;8.10;;;;;;;15.59;94.34;100045.73;2857424;83;21046;-61
2021/08/29 03:30:37;;;;;;;9.10;7.08;;;;;;;15.49;94.99;100037.84;2857279;83;20971;-61
2021/08/29 03:34:41;;;;;;;9.55;8.43;;;;;;;15.50;95.21;100043.54;2857354;83;21034;-61
2021/08/29 03:39:02;;;;;;;9.45;8.33;;;;;;;15.41;95.34;100038.14;2857380;83;20990;-60
2021/08/29 03:43:06;;;;;;;9.28;8.28;;;;;;;15.28;95.87;100038.61;2857341;83;21015;-60
2021/08/29 03:47:27;;;;;;;10.03;8.45;;;;;;;15.14;96.79;100033.91;2857459;82;21058;-62
2021/08/29 03:51:30;;;;;;;11.68;8.30;;;;;;;15.07;97.45;100031.51;2857341;82;21262;-60
2021/08/29 03:55:34;;;;;;;9.78;8.80;;;;;;;15.05;97.75;100032.17;2857293;82;21022;-60
2021/08/29 03:59:38;;;;;;;10.90;9.03;;;;;;;14.99;98.06;100033.17;2857457;82;20979;-61
2021/08/29 04:03:41;;;;;;;8.58;7.58;;;;;;;14.97;98.27;100036.99;2857014;82;20987;-61
2021/08/29 04:07:50;;;;;;;12.93;9.45;;;;;;;14.97;98.21;100032.48;2857327;82;21010;-61
2021/08/29 04:11:53;;;;;;;11.55;10.08;;;;;;;14.98;98.15;100028.81;2857318;83;20971;-61
2021/08/29 04:16:33;;;;;;;11.60;9.73;;;;;;;15.01;98.03;100030.83;2857191;83;20994;-62
2021/08/29 04:20:35;;;;;;;9.38;8.40;;;;;;;15.06;97.95;100032.51;2857214;82;21003;-61
2021/08/29 04:25:00;;;;;;;9.75;8.85;;;;;;;15.07;97.89;100032.84;2857253;82;21021;-60
2021/08/29 04:29:03;;;;;;;10.95;9.20;;;;;;;15.10;98.03;100032.52;2857353;83;21011;-60
2021/08/29 04:33:05;;;;;;;8.13;7.12;;;;;;;15.16;98.05;100033.23;2857370;83;20971;-62
2021/08/29 04:37:08;;;;;;;9.48;8.33;;;;;;;15.21;97.95;100030.90;2857471;83;21244;-61
2021/08/29 04:41:10;;;;;;;8.43;6.47;;;;;;;15.28;97.96;100031.91;2857384;82;20998;-60
2021/08/29 04:45:12;;;;;;;9.03;7.47;;;;;;;15.37;97.97;100034.63;2857571;83;21006;-61
2021/08/29 04:49:14;;;;;;;9.20;8.05;;;;;;;15.55;98.12;100038.52;2857199;83;21053;-62
2021/08/29 04:53:16;;;;;;;10.13;7.58;;;;;;;16.04;99.14;100036.42;2899619;81;20986;-60
2021/08/29 04:58:14;;;;;;;9.05;8.15;;;;;;;16.55;96.66;100035.37;2920531;81;21229;-60
2021/08/29 05:02:16;;;;;;;10.03;7.17;;;;;;;16.74;93.85;100038.68;2909450;81;20951;-59
2021/08/29 05:06:55;;;;;;;10.58;7.80;;;;;;;16.85;92.26;100039.63;2907919;82;21037;-59
2021/08/29 05:10:57;;;;;;;6.53;5.92;;;;;;;16.75;91.31;100048.41;2877931;81;20936;-59
2021/08/29 05:14:59;;;;;;;10.25;7.60;;;;;;;16.42;92.21;100047.98;2830038;84;21019;-61
2021/08/29 05:19:38;;;;;;;8.68;7.67;;;;;;;16.30;93.32;100044.78;2829631;82;21047;-62
2021/08/29 05:23:40;;;;;;;7.05;6.28;;;;;;;16.20;94.37;100038.25;2844758;82;20991;-59
2021/08/29 05:27:53;;;;;;;7.97;7.22;;;;;;;16.21;94.62;100047.15;2832310;83;20968;-61
2021/08/29 05:31:55;;;;;;;8.63;7.42;;;;;;;16.24;95.04;100046.80;2832886;83;20940;-59
2021/08/29 05:35:57;;;;;;;10.90;8.40;;;;;;;16.26;94.91;100052.84;2832780;83;21026;-59
2021/08/29 05:39:59;;;;;;;9.90;7.80;;;;;;;16.31;95.02;100052.34;2835719;83;21042;-59
2021/08/29 05:44:00;;;;;;;7.33;6.33;;;;;;;16.44;94.73;100057.19;2807891;85;20975;-59
2021/08/29 05:48:03;;;;;;;9.30;7.87;;;;;;;16.48;94.04;100052.66;2858351;82;21022;-59
2021/08/29 05:52:42;;;;;;;7.10;6.40;;;;;;;16.60;93.50;100059.00;2807628;85;21937;-59
2021/08/29 05:56:44;;;;;;;9.13;8.15;;;;;;;16.59;93.25;100058.67;2877064;82;20971;-61
2021/08/29 06:00:46;;;;;;;7.95;7.22;;;;;;;16.49;92.99;100060.19;2890202;82;20972;-59
2021/08/29 06:04:50;;;;;;;8.43;6.78;;;;;;;16.43;93.16;100064.42;2805912;85;21308;-60
2021/08/29 06:09:14;;;;;;;8.28;7.00;;;;;;;16.45;93.49;100061.06;2856639;83;21022;-58
2021/08/29 06:13:16;;;;;;;8.05;7.35;;;;;;;16.53;93.55;100060.21;2807044;85;21011;-59
2021/08/29 06:17:18;;;;;;;8.23;7.08;;;;;;;16.75;93.46;100065.87;2858943;83;21041;-61
2021/08/29 06:21:20;;;;;;;9.03;8.13;;;;;;;16.91;93.17;100052.39;2858880;83;20987;-62
2021/08/29 06:25:22;;;;;;;8.40;7.50;;;;;;;16.99;91.83;100054.22;2859119;83;21007;-60
2021/08/29 06:29:24;;;;;;;7.53;6.37;;;;;;;17.05;91.78;100052.69;2858174;83;21038;-59
2021/08/29 06:33:37;;;;;;;7.80;6.33;;;;;;;17.14;91.41;100044.94;2808446;85;20987;-59
2021/08/29 06:37:39;;;;;;;8.05;6.95;;;;;;;17.15;90.17;100056.02;2859038;83;21045;-59
2021/08/29 06:46:10;;;;;;;8.55;7.55;;;;;;;17.24;91.24;100053.61;2846176;83;21042;-59
2021/08/29 06:50:13;;;;;;;9.20;7.42;;;;;;;17.38;90.72;100052.55;2832025;84;20968;-59
2021/08/29 06:54:14;;;;;;;7.17;6.47;;;;;;;17.53;90.02;100052.13;2827595;84;20956;-59
2021/08/29 06:58:16;;;;;;;8.28;7.47;;;;;;;17.60;88.92;100048.72;2822083;84;20992;-59
2021/08/29 07:02:50;;;;;;;9.05;7.20;;;;;;;17.68;89.25;100055.38;2820683;84;21038;-60
2021/08/29 07:06:52;;;;;;;10.23;7.05;;;;;;;17.85;89.26;100051.56;2780834;85;20999;-59
2021/08/29 07:10:54;;;;;;;10.93;6.90;;;;;;;18.04;86.83;100056.69;2786951;84;21030;-59
2021/08/29 07:14:56;;;;;;;10.45;7.55;;;;;;;18.17;87.36;100049.34;2845805;83;20983;-60
2021/08/29 07:18:58;;;;;;;8.78;7.42;;;;;;;18.24;86.47;100047.59;2831891;83;20991;-60
2021/08/29 07:23:23;;;;;;;7.87;6.33;;;;;;;18.41;86.58;100043.73;2827395;84;21015;-60
2021/08/29 07:27:25;;;;;;;9.00;7.00;;;;;;;18.79;86.07;100039.30;2845782;83;21023;-59
2021/08/29 07:31:29;;;;;;;12.00;8.85;;;;;;;18.86;83.62;100042.09;2831505;82;21023;-60
2021/08/29 07:35:31;;;;;;;8.45;7.37;;;;;;;18.90;85.40;100039.34;2832683;84;21052;-58
2021/08/29 07:39:46;;;;;;;7.10;6.45;;;;;;;19.08;83.77;100036.31;2831413;84;20991;-57
2021/08/29 07:44:00;;;;;;;8.63;7.42;;;;;;;19.23;83.53;100036.27;2839905;82;21354;-59
2021/08/29 07:48:03;;;;;;;8.83;7.78;;;;;;;19.62;83.63;100035.55;2807818;85;21006;-59
2021/08/29 07:52:06;;;;;;;9.45;7.20;;;;;;;20.20;83.61;100034.16;2858541;83;21186;-60
2021/08/29 07:56:10;;;;;;;9.48;7.03;;;;;;;20.44;80.02;100032.04;2807953;85;21062;-62
2021/08/29 08:00:14;;;;;;;10.10;6.50;;;;;;;20.71;80.94;100024.63;2858734;83;21026;-59
2021/08/29 08:04:19;;;;;;;10.58;7.60;;;;;;;20.93;79.24;100016.77;2808206;85;21011;-60
2021/08/29 08:08:21;;;;;;;9.23;7.95;;;;;;;21.10;77.85;100012.36;2858807;83;21266;-59
2021/08/29 08:12:32;;;;;;;9.45;7.75;;;;;;;21.09;76.82;100003.94;2808167;85;21034;-61
2021/08/29 08:16:35;;;;;;;7.70;6.75;;;;;;;21.16;77.05;100003.97;2858434;82;21003;-59
2021/08/29 08:20:45;;;;;;;6.62;5.80;;;;;;;21.18;76.49;100008.12;2807964;85;21015;-60
2021/08/29 08:24:46;;;;;;;7.95;6.10;;;;;;;21.20;76.02;99999.28;2853585;83;21046;-60
2021/08/29 08:28:48;;;;;;;7.25;6.42;;;;;;;21.23;76.40;100004.81;2807769;84;21042;-59
2021/08/29 08:33:00;;;;;;;7.47;5.87;;;;;;;21.07;76.23;100005.48;2858382;83;20963;-60
2021/08/29 08:37:03;;;;;;;8.58;6.37;;;;;;;21.12;76.61;99991.36;2808032;85;21014;-59
2021/08/29 08:41:05;;;;;;;9.00;8.08;;;;;;;21.24;76.20;99992.95;2858439;83;21035;-58
2021/08/29 08:45:09;;;;;;;6.62;5.92;;;;;;;21.35;75.66;99991.53;2819372;83;21036;-59
2021/08/29 08:49:12;;;;;;;9.35;7.33;;;;;;;21.52;74.98;99987.41;2845620;83;20984;-60
2021/08/29 08:53:30;;;;;;;7.12;6.30;;;;;;;21.52;74.98;99986.05;2831486;84;21055;-58
2021/08/29 08:57:32;;;;;;;8.40;6.97;;;;;;;21.53;74.50;99983.66;2827130;84;21051;-59
2021/08/29 09:01:34;;;;;;;6.75;5.97;;;;;;;21.72;74.27;99983.92;2845711;82;21035;-61
2021/08/29 09:05:38;;;;;;;6.40;5.75;;;;;;;21.78;74.26;99987.14;2830930;84;20980;-59
2021/08/29 09:15:05;;;;;;;6.62;5.97;;;;;;;22.18;73.14;99984.12;2845804;83;21066;-59
2021/08/29 09:19:18;;;;;;;8.68;5.78;;;;;;;22.58;71.94;99978.66;2831314;84;21101;-59
2021/08/29 09:23:21;;;;;;;5.78;4.67;;;;;;;22.82;71.65;99974.41;2827204;84;21276;-62
2021/08/29 09:27:31;;;;;;;4.87;3.92;;;;;;;22.94;71.28;99977.28;2827285;84;21087;-60
2021/08/29 09:31:48;;;;;;;4.78;4.20;;;;;;;23.13;69.85;99969.80;2827048;84;20995;-60
2021/08/29 09:35:54;;;;;;;5.87;4.42;;;;;;;22.91;67.87;99979.06;2827185;84;21015;-59
2021/08/29 09:40:21;;;;;;;6.22;4.33;;;;;;;22.77;69.87;99972.02;2826161;84;21336;-60
2021/08/29 09:44:36;;;;;;;4.83;3.55;;;;;;;22.94;69.20;99973.75;2844309;83;21035;-59
2021/08/29 09:48:48;;;;;;;5.72;3.90;;;;;;;22.84;68.43;99972.85;2856572;83;21027;-59
2021/08/29 09:53:12;;;;;;;3.95;3.65;;;;;;;22.47;67.71;99973.91;2856880;83;20995;-58
2021/08/29 09:57:19;;;;;;;3.77;3.40;;;;;;;22.19;68.16;99984.42;2853609;83;21057;-59
2021/08/29 10:01:24;;;;;;;6.85;4.28;;;;;;;21.94;69.61;99987.78;2856760;83;21027;-60
2021/08/29 10:05:31;;;;;;;5.05;4.12;;;;;;;21.69;69.95;99982.98;2850399;83;21014;-59
2021/08/29 10:09:41;;;;;;;6.50;4.15;;;;;;;21.47;71.97;99989.90;2856805;83;21078;-58
2021/08/29 10:13:46;;;;;;;11.50;5.87;;;;;;;21.23;74.92;99992.64;2856425;83;21509;-66
2021/08/29 10:18:43;;;;;;;8.73;5.85;;;;;;;20.57;78.61;99996.70;2857006;83;20971;-63
2021/08/29 10:22:52;;;;;;;6.28;5.67;;;;;;;19.99;82.80;99991.81;2856352;83;21034;-65
2021/08/29 10:27:39;;;;;;;10.03;6.62;;;;;;;19.63;86.83;99977.87;2856847;83;21062;-65
2021/08/29 10:32:14;;;;;;;7.45;5.33;;;;;;;19.57;88.21;99978.15;2856363;83;21079;-67
2021/08/29 10:36:22;;;;;;;4.78;4.03;;;;;;;19.59;89.10;99981.48;2855155;83;21117;-66
2021/08/29 10:40:28;;;;;;;5.90;5.30;;;;;;;19.65;87.37;99977.16;2840003;83;21039;-69
2021/08/29 10:44:32;;;;;;;6.78;6.10;;;;;;;19.82;90.21;99976.39;2864650;81;21046;-75
2021/08/29 10:49:00;;;;;;;4.42;4.05;;;;;;;20.05;87.53;99976.20;2779528;84;21019;-73
2021/08/29 10:53:29;;;;;;;12.00;5.78;;;;;;;20.24;87.73;99965.72;2821162;83;21086;-75
2021/08/29 10:57:40;;;;;;;4.37;3.98;;;;;;;20.44;89.81;99960.45;2761955;86;21004;-75
2021/08/29 11:01:57;;;;;;;3.80;3.50;;;;;;;20.52;85.98;99967.03;2818449;84;21007;-77
2021/08/29 11:06:00;;;;;;;5.33;4.80;;;;;;;20.53;84.13;99958.42;2763414;84;21130;-79
2021/08/29 11:10:08;;;;;;;5.28;4.58;;;;;;;20.53;84.86;99961.13;2811920;84;21026;-76
2021/08/29 11:14:58;;;;;;;4.08;3.67;;;;;;;20.56;84.55;99964.78;2817380;84;20987;-78
2021/08/29 11:19:06;;;;;;;4.78;4.05;;;;;;;20.53;83.42;99955.73;2811903;84;21070;-73
2021/08/29 11:23:09;;;;;;;3.15;2.92;;;;;;;20.50;82.79;99953.42;2812335;83;21066;-74
2021/08/29 11:27:44;;;;;;;2.87;2.50;;;;;;;20.51;81.69;99954.56;2815406;83;21008;-70
2021/08/29 11:32:44;;;;;;;3.25;2.95;;;;;;;20.50;80.23;99950.73;2811061;84;21050;-70
2021/08/29 11:37:26;;;;;;;3.17;2.47;;;;;;;20.57;80.63;99944.02;2771127;85;21159;-72
2021/08/29 11:41:30;;;;;;;2.70;2.50;;;;;;;20.60;77.11;99942.25;2775359;85;21261;-72
2021/08/29 11:45:49;;;;;;;5.80;5.17;;;;;;;20.65;80.41;99950.09;2793523;83;20988;-67
2021/08/29 11:49:57;;;;;;;6.10;5.33;;;;;;;20.53;81.01;99955.73;2822102;83;21138;-69
2021/08/29 11:54:07;;;;;;;5.95;5.35;;;;;;;20.34;81.71;99958.61;2827613;84;20995;-67
2021/08/29 11:58:20;;;;;;;5.90;5.30;;;;;;;20.28;82.03;99945.41;2825730;84;21094;-70
2021/08/29 12:02:56;;;;;;;5.90;5.10;;;;;;;20.30;82.59;99939.30;2827588;81;71758;-72
2021/08/29 12:07:09;;;;;;;9.63;4.72;;;;;;;20.33;81.05;99940.23;2816103;83;21027;-70
2021/08/29 12:46:10;;;;;;;6.72;5.65;;;;;;;20.59;77.70;99936.00;2862206;83;21149;-68
2021/08/29 12:50:19;;;;;;;6.62;5.20;;;;;;;20.51;77.75;99930.25;2842380;83;21020;-68
2021/08/29 12:54:23;;;;;;;6.10;4.92;;;;;;;20.48;78.30;99927.13;2862560;82;21025;-69
2021/08/29 12:58:36;;;;;;;5.92;5.05;;;;;;;20.51;78.08;99922.67;2835900;83;20979;-67
2021/08/29 13:02:42;;;;;;;4.10;3.10;;;;;;;20.67;77.36;99923.69;2814792;83;20990;-68
2021/08/29 13:06:45;;;;;;;4.12;3.83;;;;;;;20.84;75.57;99913.91;2833736;83;21002;-68
2021/08/29 13:11:05;;;;;;;5.75;4.40;;;;;;;21.03;75.42;99914.15;2862760;82;21044;-67
2021/08/29 13:15:08;;;;;;;4.40;3.98;;;;;;;21.23;74.92;99912.35;2862450;83;21018;-68
2021/08/29 13:19:10;;;;;;;4.58;4.00;;;;;;;21.48;73.47;99907.69;2829034;83;20971;-68
2021/08/29 13:23:34;;;;;;;4.30;3.90;;;;;;;21.71;73.72;99902.41;2851054;83;20971;-68
2021/08/29 13:27:36;;;;;;;6.17;3.33;;;;;;;21.89;71.51;99903.66;2852092;83;20994;-69
2021/08/29 13:31:38;;;;;;;5.60;3.47;;;;;;;21.98;70.25;99898.31;2834339;83;20974;-68
2021/08/29 13:35:40;;;;;;;5.08;3.70;;;;;;;22.08;69.78;99896.52;2858788;83;20985;-68
2021/08/29 13:39:43;;;;;;;7.28;3.70;;;;;;;22.15;69.79;99888.39;2851979;83;20980;-67
2021/08/29 13:43:45;;;;;;;6.70;4.72;;;;;;;22.28;69.74;99884.81;2852207;83;21441;-68
2021/08/29 13:47:47;;;;;;;4.58;4.17;;;;;;;22.33;67.23;99883.13;2817750;84;21034;-67
2021/08/29 13:51:49;;;;;;;5.05;3.30;;;;;;;22.48;67.37;99876.66;2830491;84;21015;-69
2021/08/29 13:55:50;;;;;;;4.08;3.67;;;;;;;22.59;67.90;99863.77;2830340;84;21023;-67
2021/08/29 13:59:52;;;;;;;4.03;3.62;;;;;;;22.75;67.06;99862.97;2830467;84;21026;-67
2021/08/29 14:03:54;;;;;;;4.28;3.33;;;;;;;22.97;65.44;99856.70;2830385;84;21034;-68
2021/08/29 14:07:55;;;;;;;3.60;3.25;;;;;;;23.13;64.50;99866.72;2830345;84;21015;-68
2021/08/29 14:11:57;;;;;;;3.45;2.92;;;;;;;23.18;63.80;99866.89;2837683;83;21047;-68
2021/08/29 14:15:58;;;;;;;4.05;3.65;;;;;;;23.44;63.48;99868.60;2841184;83;20995;-67
2021/08/29 14:20:00;;;;;;;4.37;3.17;;;;;;;23.64;62.60;99865.70;2841540;84;21047;-68
2021/08/29 14:24:02;;;;;;;3.65;3.22;;;;;;;23.63;60.73;99876.80;2841541;84;20995;-68
2021/08/29 14:28:04;;;;;;;3.47;2.90;;;;;;;23.45;61.33;99877.56;2841710;83;21002;-68
2021/08/29 14:32:11;;;;;;;3.15;2.62;;;;;;;23.34;60.73;99875.03;2852408;83;21010;-67
2021/08/29 14:36:10;;;;;;;3.37;2.83;;;;;;;23.24;60.71;99876.85;2844345;83;21015;-68
2021/08/29 14:40:13;;;;;;;5.80;3.27;;;;;;;23.13;61.14;99877.03;2866856;82;21023;-67
2021/08/29 14:44:15;;;;;;;3.72;3.30;;;;;;;23.05;60.48;99870.53;2854094;83;20999;-68
2021/08/29 14:48:17;;;;;;;4.28;3.58;;;;;;;22.99;62.18;99879.52;2838294;84;21053;-67
2021/08/29 14:52:19;;;;;;;4.78;4.12;;;;;;;22.92;63.73;99880.94;2815940;83;21106;-67
2021/08/29 14:56:21;;;;;;;4.03;3.62;;;;;;;22.78;64.97;99878.28;2775583;85;20971;-67
2021/08/29 15:00:23;;;;;;;3.83;3.42;;;;;;;22.70;64.34;99876.35;2775414;85;20979;-67
2021/08/29 15:04:24;;;;;;;7.25;4.45;;;;;;;22.60;64.60;99873.59;2774256;85;21031;-68
2021/08/29 15:08:26;;;;;;;4.60;3.60;;;;;;;22.58;65.64;99877.55;2812142;83;21033;-68
2021/08/29 15:12:28;;;;;;;4.55;4.12;;;;;;;22.58;65.90;99873.48;2845817;80;21025;-68
2021/08/29 15:16:31;;;;;;;6.50;3.12;;;;;;;22.53;64.97;99870.91;2855373;83;21032;-67
2021/08/29 15:20:35;;;;;;;3.80;3.50;;;;;;;22.55;66.73;99872.03;2855478;83;20977;-67
2021/08/29 15:24:37;;;;;;;3.72;3.40;;;;;;;22.59;68.27;99873.25;2855229;82;21024;-68
2021/08/29 15:28:39;;;;;;;6.25;3.92;;;;;;;22.56;67.74;99870.98;2853801;83;20981;-67
2021/08/29 15:32:40;;;;;;;5.33;4.10;;;;;;;22.44;67.98;99870.80;2822472;82;20985;-69
2021/08/29 15:36:45;;;;;;;5.55;3.35;;;;;;;22.19;67.03;99876.08;2807417;84;29695;-69
2021/08/29 15:40:49;;;;;;;8.63;4.75;;;;;;;21.86;68.30;99875.11;2786785;85;21050;-69
2021/08/29 15:44:50;;;;;;;10.32;6.28;;;;;;;21.63;69.44;99882.30;2800454;84;21069;-69
2021/08/29 15:48:52;;;;;;;4.03;3.65;;;;;;;21.36;70.75;99880.93;2797497;84;21555;-69
2021/08/29 15:52:56;;;;;;;3.22;2.45;;;;;;;21.04;70.79;99875.29;2798808;85;21078;-69
2021/08/29 15:56:58;;;;;;;7.03;6.42;;;;;;;20.79;72.42;99878.50;2802393;84;21049;-70
2021/08/29 16:01:03;;;;;;;3.17;2.72;;;;;;;20.52;74.08;99875.72;2807991;85;20975;-69
2021/08/29 16:05:06;;;;;;;5.05;3.27;;;;;;;20.27;75.68;99876.23;2795896;83;21050;-71
2021/08/29 16:09:07;;;;;;;5.20;3.90;;;;;;;20.04;77.09;99878.67;2763258;85;21038;-71
2021/08/29 16:13:09;;;;;;;7.62;3.95;;;;;;;19.78;78.37;99880.14;2807530;82;20984;-70
2021/08/29 16:17:11;;;;;;;5.17;3.87;;;;;;;19.57;78.91;99884.23;2807588;84;21027;-69
2021/08/29 16:21:13;;;;;;;1.98;1.75;;;;;;;19.36;78.80;99898.06;2807155;85;20973;-69
2021/08/29 16:25:14;;;;;;;4.58;2.40;;;;;;;19.22;76.65;99893.87;2807045;84;21083;-70
2021/08/29 16:29:16;;;;;;;6.87;2.77;;;;;;;19.01;75.67;99897.41;2805611;84;21017;-70
2021/08/29 16:33:18;;;;;;;7.55;3.42;;;;;;;18.80;76.77;99894.13;2807089;85;20979;-70
2021/08/29 16:37:19;;;;;;;5.90;2.80;;;;;;;18.59;78.52;99875.55;2807083;85;21519;-71
2021/08/29 16:41:21;;;;;;;4.62;2.45;;;;;;;18.36;80.82;99861.70;2826261;83;21007;-71
2021/08/29 16:45:23;;;;;;;5.45;2.90;;;;;;;18.25;80.50;99860.32;2867892;82;20988;-73
2021/08/29 16:49:25;;;;;;;4.53;2.45;;;;;;;18.20;80.91;99860.05;2837694;83;20956;-73
2021/08/29 16:53:27;;;;;;;10.10;8.15;;;;;;;18.20;80.96;99851.13;2837647;83;21086;-73
2021/08/29 16:57:28;;;;;;;9.63;5.28;;;;;;;18.13;80.44;99849.69;2838882;82;21022;-73
2021/08/29 17:01:30;;;;;;;7.60;4.72;;;;;;;18.05;80.50;99845.23;2855277;83;21006;-73
2021/08/29 17:05:32;;;;;;;3.20;2.90;;;;;;;18.12;81.90;99842.64;2835529;81;21057;-73
2021/08/29 17:09:34;;;;;;;4.45;2.40;;;;;;;18.17;79.72;99846.95;2858276;82;21074;-73
2021/08/29 17:13:37;;;;;;;5.30;2.45;;;;;;;18.02;79.70;99849.64;2884104;82;20994;-72
2021/08/29 17:17:39;;;;;;;2.75;2.20;;;;;;;17.98;80.70;99849.67;2852618;83;21018;-73
2021/08/29 17:21:41;;;;;;;4.97;3.72;;;;;;;17.94;80.59;99855.10;2855775;81;21026;-73
2021/08/29 17:25:42;;;;;;;5.33;4.75;;;;;;;17.83;79.62;99859.91;2863055;82;21038;-73
2021/08/29 17:29:44;;;;;;;6.00;4.25;;;;;;;17.78;79.39;99865.50;2864653;83;21050;-73
2021/08/29 17:33:46;;;;;;;4.47;3.72;;;;;;;17.72;80.59;99867.09;2864605;80;20963;-74
2021/08/29 17:37:48;;;;;;;11.43;5.00;;;;;;;17.75;81.60;99872.59;2864572;80;21014;-73
2021/08/29 17:41:50;;;;;;;9.65;4.83;;;;;;;17.79;82.20;99877.96;2863527;80;21084;-73
2021/08/29 17:55:06;;;;;;;4.08;3.25;;;;;;;17.93;81.72;99893.80;2915396;80;21094;-63
2021/08/29 17:59:08;;;;;;;4.33;3.00;;;;;;;17.91;81.58;99903.38;2916578;81;21010;-65
2021/08/29 18:03:13;;;;;;;4.97;3.95;;;;;;;17.89;81.96;99912.67;2907674;81;20975;-64
2021/08/29 18:07:16;;;;;;;;;;;;;;;17.72;82.73;99919.55;2910419;81;21058;-63
2021/08/29 18:11:25;;;;;;;4.90;3.62;;;;;;;17.56;83.79;99921.34;2907746;82;20059;-64
2021/08/29 18:15:27;;;;;;;4.47;3.85;;;;;;;17.54;84.95;99923.39;2908930;80;20991;-63
2021/08/29 18:19:32;;;;;;;8.50;4.15;;;;;;;17.55;85.83;99933.62;2907369;81;20995;-65
2021/08/29 18:23:34;;;;;;;5.05;4.10;;;;;;;17.54;85.73;99932.80;2908045;80;20999;-63
2021/08/29 18:27:40;;;;;;;4.97;4.15;;;;;;;17.46;86.02;99935.53;2907638;81;20977;-67
2021/08/29 18:31:40;;;;;;;4.00;3.60;;;;;;;17.33;86.74;99933.45;2875512;82;20995;-64
2021/08/29 18:35:52;;;;;;;4.28;3.15;;;;;;;17.26;87.50;99936.01;2907814;80;21015;-63
2021/08/29 18:48:14;;;;;;;6.00;5.25;;;;;;;17.44;88.52;99952.88;2834049;81;21061;-63
2021/08/29 18:52:19;;;;;;;7.08;5.95;;;;;;;17.52;88.52;99955.00;2778776;85;20978;-64
2021/08/29 18:56:22;;;;;;;8.58;6.17;;;;;;;17.65;88.38;99954.89;2778880;83;20985;-65
2021/08/29 19:00:47;;;;;;;11.93;5.05;;;;;;;17.70;88.49;99951.98;2778622;85;21017;-65
2021/08/29 19:04:50;;;;;;;6.10;4.25;;;;;;;17.80;88.54;99955.77;2778864;85;21009;-62
2021/08/29 19:08:52;;;;;;;6.58;5.12;;;;;;;17.75;87.79;99964.91;2778772;85;21068;-62
2021/08/29 19:12:54;;;;;;;12.80;9.20;;;;;;;17.40;88.65;99961.30;2750529;84;21017;-66
2021/08/29 19:16:56;;;;;;;42.10;28.25;;;;;;;17.21;89.72;99969.31;2776053;84;21008;-62
2021/08/29 19:20:58;;;;;;;10.28;8.33;;;;;;;17.08;90.58;99966.35;2728398;86;20988;-64
2021/08/29 19:25:41;;;;;;;8.60;7.33;;;;;;;17.04;91.61;99956.97;2776174;86;21023;-63
2021/08/29 19:29:44;;;;;;;9.48;6.92;;;;;;;17.01;92.21;99951.47;2732486;86;21053;-65
2021/08/29 19:33:50;;;;;;;8.10;7.15;;;;;;;17.10;92.76;99950.91;2779680;85;20965;-62
2021/08/29 19:38:03;;;;;;;15.40;7.47;;;;;;;17.14;91.84;99942.83;2743567;86;20966;-63
2021/08/29 19:42:04;;;;;;;7.85;6.58;;;;;;;17.23;91.98;99948.98;2790332;85;21669;-64
2021/08/29 19:46:07;;;;;;;7.40;6.55;;;;;;;17.25;91.45;99939.71;2788102;84;20996;-65
2021/08/29 19:50:10;;;;;;;6.90;6.03;;;;;;;17.26;91.29;99942.73;2759407;86;20948;-64
2021/08/29 19:54:14;;;;;;;9.73;6.92;;;;;;;17.31;91.44;99939.51;2759357;86;21008;-63
2021/08/29 19:58:16;;;;;;;9.13;6.72;;;;;;;17.33;90.93;99938.00;2759434;86;20991;-63
2021/08/29 20:02:36;;;;;;;6.95;6.28;;;;;;;17.34;90.29;99935.12;2759286;86;21062;-64
2021/08/29 20:06:38;;;;;;;9.85;7.55;;;;;;;17.33;90.18;99935.31;2759387;86;20995;-65
2021/08/29 20:10:40;;;;;;;7.03;6.28;;;;;;;17.31;89.90;99935.48;2760924;86;20947;-64
2021/08/29 20:14:44;;;;;;;8.90;7.78;;;;;;;17.39;90.30;99942.66;2761876;86;20995;-64
2021/08/29 20:18:46;;;;;;;13.80;7.85;;;;;;;17.42;90.15;99943.63;2761811;86;21015;-64
2021/08/29 20:22:49;;;;;;;8.53;7.62;;;;;;;17.33;90.10;99941.51;2761706;86;21051;-64
2021/08/29 20:26:50;;;;;;;10.28;8.13;;;;;;;17.38;90.56;99943.67;2761679;86;21035;-64